Geronimo — PD6553 — position and weather

sailwx.info

Track history (hours):
 
Tides and Currents Weather Stations Pressure Air Temp Water Temp Dewpoint Dewpoint Depression Visibility Wind Speed Wind Dir Waves Ship Positions

Geronimo

Last reported at 2016-Jul-26 18:14 UTC. Time now 2016-Jul-29 19:50 UTC.
Position N 39°51' E 003°16'.

Length 20 m; draft 2.9 m.

Type: Sailing vessel. MMSI: 244620501.

Date/timePositionNaut miles runAvg speedWind from/ knotsBaromVisibWave heightAir tempDewpointWater temp
2016-Jul-26 18:14N 39°51' E 003°16'5 0.5
2016-Jul-26 08:31N 39°50' E 003°10'0 0.0
2016-Jul-26 07:26N 39°50' E 003°10'0 0.0
2016-Jul-26 06:26N 39°50' E 003°10'0 0.0
2016-Jul-26 05:29N 39°50' E 003°10'0 0.0
2016-Jul-26 04:18N 39°50' E 003°10'0 0.0
2016-Jul-26 03:28N 39°50' E 003°10'0 0.0
2016-Jul-26 02:16N 39°50' E 003°10'0 0.0
2016-Jul-26 01:14N 39°50' E 003°10'0 0.0
2016-Jul-26 00:29N 39°50' E 003°10'0 0.0
2016-Jul-25 23:14N 39°50' E 003°10'0 0.0
2016-Jul-25 22:33N 39°50' E 003°10'0 0.0
2016-Jul-25 21:31N 39°50' E 003°10'0 0.0
2016-Jul-25 20:31N 39°50' E 003°10'0 0.0
2016-Jul-25 19:33N 39°50' E 003°10'5 4.6
2016-Jul-25 18:32N 39°47' E 003°14'30 1.2
2016-Jul-24 16:20N 39°17' E 003°07'5 5.9
2016-Jul-24 15:33N 39°17' E 003°01'2 1.6
2016-Jul-24 14:33N 39°19' E 003°00'3 3.4
2016-Jul-24 13:33N 39°16' E 002°58'7 6.6
2016-Jul-24 12:33N 39°13' E 002°50'9 8.9
2016-Jul-24 11:33N 39°20' E 002°44'7 6.8
2016-Jul-24 10:33N 39°24' E 002°37'6 6.1
2016-Jul-24 09:33N 39°28' E 002°31'0 0.1
2016-Jul-24 08:33N 39°28' E 002°31'0 0.0
2016-Jul-24 07:33N 39°28' E 002°31'0 0.0
2016-Jul-24 06:33N 39°28' E 002°31'0 0.0
2016-Jul-24 05:33N 39°28' E 002°31'0 0.0
2016-Jul-24 04:33N 39°28' E 002°31'0 0.0
2016-Jul-24 03:33N 39°28' E 002°31'0 0.0
2016-Jul-24 02:33N 39°28' E 002°31'0 0.0
2016-Jul-24 01:33N 39°28' E 002°31'0 0.0
2016-Jul-24 00:33N 39°28' E 002°31'0 0.0
2016-Jul-23 23:33N 39°28' E 002°31'0 0.0
2016-Jul-23 22:33N 39°28' E 002°31'0 0.0
2016-Jul-23 21:33N 39°28' E 002°31'0 0.0
2016-Jul-23 20:33N 39°28' E 002°31'0 0.0
2016-Jul-23 19:33N 39°28' E 002°31'0 0.0
2016-Jul-23 18:34N 39°28' E 002°31'1 1.5
2016-Jul-23 17:33N 39°28' E 002°33'6 5.9
2016-Jul-23 16:33N 39°29' E 002°41'2 2.1
2016-Jul-23 15:34N 39°29' E 002°44'0 0.0
2016-Jul-23 14:33N 39°29' E 002°44'0 0.0
2016-Jul-23 13:33N 39°29' E 002°44'0 0.0
2016-Jul-23 12:33N 39°29' E 002°44'0 0.0
2016-Jul-23 11:33N 39°29' E 002°44'1 1.3
2016-Jul-23 10:33N 39°30' E 002°45'0 0.0
2016-Jul-23 09:33N 39°30' E 002°45'0 0.0
2016-Jul-23 08:34N 39°30' E 002°45'0 0.0
2016-Jul-23 07:33N 39°30' E 002°45'0 0.0
2016-Jul-23 06:33N 39°30' E 002°44'0 0.0
2016-Jul-23 04:33N 39°30' E 002°44'0 0.0
2016-Jul-23 03:33N 39°30' E 002°44'0 0.0
2016-Jul-23 02:33N 39°30' E 002°44'0 0.0
2016-Jul-23 01:33N 39°30' E 002°44'0 0.0
2016-Jul-23 00:33N 39°30' E 002°44'0 0.0
2016-Jul-22 23:33N 39°30' E 002°44'0 0.0
2016-Jul-22 22:33N 39°30' E 002°44'0 0.0
2016-Jul-22 21:33N 39°30' E 002°44'0 0.0
2016-Jul-22 20:33N 39°30' E 002°44'0 0.0
2016-Jul-22 19:33N 39°30' E 002°44'0 0.0
2016-Jul-22 18:33N 39°30' E 002°44'0 0.0
2016-Jul-22 17:33N 39°30' E 002°44'0 0.0
2016-Jul-22 16:33N 39°30' E 002°44'0 0.0
2016-Jul-22 15:33N 39°30' E 002°44'0 0.0
2016-Jul-22 14:33N 39°30' E 002°44'0 0.2
2016-Jul-22 13:33N 39°30' E 002°44'6 6.0
2016-Jul-22 12:33N 39°34' E 002°38'0 0.0
2016-Jul-22 11:33N 39°34' E 002°38'0 0.0
2016-Jul-22 10:33N 39°34' E 002°38'0 0.0
2016-Jul-22 09:33N 39°34' E 002°38'0 0.0
2016-Jul-22 08:33N 39°34' E 002°38'0 0.0
2016-Jul-22 07:33N 39°34' E 002°38'0 0.0
2016-Jul-22 05:33N 39°34' E 002°38'0 0.0
2016-Jul-22 04:33N 39°34' E 002°38'0 0.0
2016-Jul-22 03:33N 39°34' E 002°38'0 0.0
2016-Jul-22 02:34N 39°34' E 002°38'0 0.0
2016-Jul-22 01:33N 39°34' E 002°38'0 0.0
2016-Jul-22 00:33N 39°34' E 002°38'0 0.0
2016-Jul-21 23:33N 39°34' E 002°38'0 0.0
2016-Jul-21 22:33N 39°34' E 002°38'0 0.0
2016-Jul-21 21:33N 39°34' E 002°38'0 0.0
2016-Jul-21 20:33N 39°34' E 002°38'0 0.0
2016-Jul-21 19:33N 39°34' E 002°38'0 0.0
2016-Jul-21 18:33N 39°34' E 002°38'0 0.0
2016-Jul-21 17:33N 39°34' E 002°38'0 0.0
2016-Jul-21 16:34N 39°34' E 002°38'0 0.0
2016-Jul-21 15:33N 39°34' E 002°38'0 0.0
2016-Jul-21 14:33N 39°34' E 002°38'0 0.0
2016-Jul-21 13:33N 39°34' E 002°38'0 0.0
2016-Jul-21 12:33N 39°34' E 002°38'0 0.0
2016-Jul-21 11:34N 39°34' E 002°38'0 0.0
2016-Jul-21 10:33N 39°34' E 002°38'0 0.0
2016-Jul-21 09:33N 39°34' E 002°38'0 0.0
2016-Jul-21 08:34N 39°34' E 002°38'0 0.0
2016-Jul-21 07:33N 39°34' E 002°38'0 0.0
2016-Jul-21 06:33N 39°34' E 002°38'0 0.0
2016-Jul-21 05:33N 39°34' E 002°38'0 0.0
2016-Jul-21 04:33N 39°34' E 002°38'0 0.0
2016-Jul-21 03:33N 39°34' E 002°38'0 0.0
2016-Jul-21 02:33N 39°34' E 002°38'0 0.0
2016-Jul-21 01:33N 39°34' E 002°38'0 0.0
2016-Jul-21 00:33N 39°34' E 002°38'0 0.0
2016-Jul-20 23:33N 39°34' E 002°38'0 0.0
2016-Jul-20 22:33N 39°34' E 002°38'0 0.0
2016-Jul-20 21:33N 39°34' E 002°38'0 0.0
2016-Jul-20 20:33N 39°34' E 002°38'0 0.0
2016-Jul-20 19:34N 39°34' E 002°38'0 0.0
2016-Jul-20 18:33N 39°34' E 002°38'0 0.0
2016-Jul-20 17:33N 39°34' E 002°38'0 0.0
2016-Jul-20 16:33N 39°34' E 002°38'0 0.0
2016-Jul-20 15:33N 39°34' E 002°38'0 0.0
2016-Jul-20 14:33N 39°34' E 002°38'0 0.0
2016-Jul-20 13:33N 39°34' E 002°38'0 0.0
2016-Jul-20 12:33N 39°34' E 002°38'0 0.0
2016-Jul-20 11:33N 39°34' E 002°38'0 0.0
2016-Jul-20 10:33N 39°34' E 002°38'0 0.0
2016-Jul-20 09:33N 39°34' E 002°38'0 0.0
2016-Jul-20 08:33N 39°34' E 002°38'0 0.0
2016-Jul-20 07:33N 39°34' E 002°38'0 0.0
2016-Jul-20 06:34N 39°34' E 002°38'0 0.0
2016-Jul-20 05:33N 39°34' E 002°38'0 0.0
2016-Jul-20 04:33N 39°34' E 002°38'0 0.0
2016-Jul-20 03:33N 39°34' E 002°38'0 0.0
2016-Jul-20 02:34N 39°34' E 002°38'0 0.0
2016-Jul-20 01:34N 39°34' E 002°38'0 0.0
2016-Jul-20 00:33N 39°34' E 002°38'0 0.0
2016-Jul-19 23:33N 39°34' E 002°38'0 0.0
2016-Jul-19 22:34N 39°34' E 002°38'0 0.0
2016-Jul-19 21:34N 39°34' E 002°38'0 0.0
2016-Jul-19 20:34N 39°34' E 002°38'0 0.0
2016-Jul-19 19:33N 39°34' E 002°38'0 0.0
2016-Jul-19 18:33N 39°34' E 002°38'0 0.0
2016-Jul-19 17:34N 39°34' E 002°38'0 0.0
2016-Jul-19 16:33N 39°34' E 002°38'0 0.0
2016-Jul-19 15:33N 39°34' E 002°38'0 0.0
2016-Jul-19 14:33N 39°34' E 002°38'0 0.0
2016-Jul-19 13:33N 39°34' E 002°38'0 0.0
2016-Jul-19 12:33N 39°34' E 002°38'0 0.0
2016-Jul-19 11:33N 39°34' E 002°38'0 0.0
2016-Jul-19 10:33N 39°34' E 002°38'0 0.0
2016-Jul-19 09:33N 39°34' E 002°38'0 0.0
2016-Jul-19 08:33N 39°34' E 002°38'0 0.0
2016-Jul-19 07:33N 39°34' E 002°38'0 0.0
2016-Jul-19 04:33N 39°34' E 002°38'0 0.0
2016-Jul-19 03:33N 39°34' E 002°38'0 0.0
2016-Jul-19 02:33N 39°34' E 002°38'0 0.0
2016-Jul-19 01:33N 39°34' E 002°38'0 0.0
2016-Jul-19 00:33N 39°34' E 002°38'0 0.0
2016-Jul-18 23:33N 39°34' E 002°38'0 0.0
2016-Jul-18 22:33N 39°34' E 002°38'0 0.0
2016-Jul-18 21:33N 39°34' E 002°38'0 0.0
2016-Jul-18 20:33N 39°34' E 002°38'0 0.0
2016-Jul-18 19:34N 39°34' E 002°38'0 0.0
2016-Jul-18 18:33N 39°34' E 002°38'0 0.0
2016-Jul-18 17:08N 39°34' E 002°38'0 0.0
2016-Jul-18 16:33N 39°34' E 002°38'0 0.0
2016-Jul-18 15:33N 39°34' E 002°38'0 0.0
2016-Jul-18 14:33N 39°34' E 002°38'0 0.0
2016-Jul-18 13:33N 39°34' E 002°38'0 0.0
2016-Jul-18 12:33N 39°34' E 002°38'0 0.0
2016-Jul-18 11:33N 39°34' E 002°38'0 0.0
2016-Jul-18 10:33N 39°34' E 002°38'0 0.0
2016-Jul-18 09:33N 39°34' E 002°38'0 0.0
2016-Jul-18 08:33N 39°34' E 002°38'0 0.0
2016-Jul-18 07:34N 39°34' E 002°38'0 0.0
2016-Jul-18 06:33N 39°34' E 002°38'0 0.0
2016-Jul-18 05:33N 39°34' E 002°38'0 0.0
2016-Jul-18 04:33N 39°34' E 002°38'0 0.0
2016-Jul-18 03:33N 39°34' E 002°38'0 0.0
2016-Jul-18 02:33N 39°34' E 002°38'0 0.0
2016-Jul-18 01:33N 39°34' E 002°38'0 0.0
2016-Jul-18 00:33N 39°34' E 002°38'0 0.0
2016-Jul-17 23:33N 39°34' E 002°38'0 0.0
2016-Jul-17 22:33N 39°34' E 002°38'0 0.0
2016-Jul-17 21:33N 39°34' E 002°38'0 0.0
2016-Jul-17 20:33N 39°34' E 002°38'0 0.0
2016-Jul-17 19:33N 39°34' E 002°38'0 0.0
2016-Jul-17 18:33N 39°34' E 002°38'0 0.0
2016-Jul-17 17:33N 39°34' E 002°38'0 0.0
2016-Jul-17 16:33N 39°34' E 002°38'0 0.0
2016-Jul-17 15:33N 39°34' E 002°38'0 0.0
2016-Jul-17 14:33N 39°34' E 002°38'0 0.0
2016-Jul-17 13:33N 39°34' E 002°38'0 0.0
2016-Jul-17 12:33N 39°34' E 002°38'0 0.0
2016-Jul-17 11:33N 39°34' E 002°38'0 0.0
2016-Jul-17 10:33N 39°34' E 002°38'0 0.0
2016-Jul-17 09:33N 39°34' E 002°38'0 0.0
2016-Jul-17 08:33N 39°34' E 002°38'0 0.0
2016-Jul-17 07:33N 39°34' E 002°38'0 0.0
2016-Jul-17 06:33N 39°34' E 002°38'0 0.0
2016-Jul-17 04:33N 39°34' E 002°38'0 0.0
2016-Jul-17 03:33N 39°34' E 002°38'0 0.0
2016-Jul-17 02:33N 39°34' E 002°38'0 0.0
2016-Jul-17 01:33N 39°34' E 002°38'0 0.0
2016-Jul-17 00:33N 39°34' E 002°38'0 0.0
2016-Jul-16 23:33N 39°34' E 002°38'0 0.0
2016-Jul-16 22:33N 39°34' E 002°38'0 0.0
2016-Jul-16 21:18N 39°34' E 002°38'0 0.0
2016-Jul-16 20:33N 39°34' E 002°38'0 0.0
2016-Jul-16 19:33N 39°34' E 002°38'0 0.0
2016-Jul-16 18:33N 39°34' E 002°38'  
Track history (hours):
 
Tides and Currents Weather Stations Pressure Air Temp Water Temp Dewpoint Dewpoint Depression Visibility Wind Speed Wind Dir Waves Ship Positions

Geronimo

Last reported at 2016-Jul-26 18:14 UTC. Time now 2016-Jul-29 19:50 UTC.
Position N 39°51' E 003°16'.

Length 20 m; draft 2.9 m.

Type: Sailing vessel. MMSI: 244620501.

Date/timePositionNaut miles runAvg speedWind from/ knotsBaromVisibWave heightAir tempDewpointWater temp
2016-Jul-26 18:14N 39°51' E 003°16'5 0.5
2016-Jul-26 08:31N 39°50' E 003°10'0 0.0
2016-Jul-26 07:26N 39°50' E 003°10'0 0.0
2016-Jul-26 06:26N 39°50' E 003°10'0 0.0
2016-Jul-26 05:29N 39°50' E 003°10'0 0.0
2016-Jul-26 04:18N 39°50' E 003°10'0 0.0
2016-Jul-26 03:28N 39°50' E 003°10'0 0.0
2016-Jul-26 02:16N 39°50' E 003°10'0 0.0
2016-Jul-26 01:14N 39°50' E 003°10'0 0.0
2016-Jul-26 00:29N 39°50' E 003°10'0 0.0
2016-Jul-25 23:14N 39°50' E 003°10'0 0.0
2016-Jul-25 22:33N 39°50' E 003°10'0 0.0
2016-Jul-25 21:31N 39°50' E 003°10'0 0.0
2016-Jul-25 20:31N 39°50' E 003°10'0 0.0
2016-Jul-25 19:33N 39°50' E 003°10'5 4.6
2016-Jul-25 18:32N 39°47' E 003°14'30 1.2
2016-Jul-24 16:20N 39°17' E 003°07'5 5.9
2016-Jul-24 15:33N 39°17' E 003°01'2 1.6
2016-Jul-24 14:33N 39°19' E 003°00'3 3.4
2016-Jul-24 13:33N 39°16' E 002°58'7 6.6
2016-Jul-24 12:33N 39°13' E 002°50'9 8.9
2016-Jul-24 11:33N 39°20' E 002°44'7 6.8
2016-Jul-24 10:33N 39°24' E 002°37'6 6.1
2016-Jul-24 09:33N 39°28' E 002°31'0 0.1
2016-Jul-24 08:33N 39°28' E 002°31'0 0.0
2016-Jul-24 07:33N 39°28' E 002°31'0 0.0
2016-Jul-24 06:33N 39°28' E 002°31'0 0.0
2016-Jul-24 05:33N 39°28' E 002°31'0 0.0
2016-Jul-24 04:33N 39°28' E 002°31'0 0.0
2016-Jul-24 03:33N 39°28' E 002°31'0 0.0
2016-Jul-24 02:33N 39°28' E 002°31'0 0.0
2016-Jul-24 01:33N 39°28' E 002°31'0 0.0
2016-Jul-24 00:33N 39°28' E 002°31'0 0.0
2016-Jul-23 23:33N 39°28' E 002°31'0 0.0
2016-Jul-23 22:33N 39°28' E 002°31'0 0.0
2016-Jul-23 21:33N 39°28' E 002°31'0 0.0
2016-Jul-23 20:33N 39°28' E 002°31'0 0.0
2016-Jul-23 19:33N 39°28' E 002°31'0 0.0
2016-Jul-23 18:34N 39°28' E 002°31'1 1.5
2016-Jul-23 17:33N 39°28' E 002°33'6 5.9
2016-Jul-23 16:33N 39°29' E 002°41'2 2.1
2016-Jul-23 15:34N 39°29' E 002°44'0 0.0
2016-Jul-23 14:33N 39°29' E 002°44'0 0.0
2016-Jul-23 13:33N 39°29' E 002°44'0 0.0
2016-Jul-23 12:33N 39°29' E 002°44'0 0.0
2016-Jul-23 11:33N 39°29' E 002°44'1 1.3
2016-Jul-23 10:33N 39°30' E 002°45'0 0.0
2016-Jul-23 09:33N 39°30' E 002°45'0 0.0
2016-Jul-23 08:34N 39°30' E 002°45'0 0.0
2016-Jul-23 07:33N 39°30' E 002°45'0 0.0
2016-Jul-23 06:33N 39°30' E 002°44'0 0.0
2016-Jul-23 04:33N 39°30' E 002°44'0 0.0
2016-Jul-23 03:33N 39°30' E 002°44'0 0.0
2016-Jul-23 02:33N 39°30' E 002°44'0 0.0
2016-Jul-23 01:33N 39°30' E 002°44'0 0.0
2016-Jul-23 00:33N 39°30' E 002°44'0 0.0
2016-Jul-22 23:33N 39°30' E 002°44'0 0.0
2016-Jul-22 22:33N 39°30' E 002°44'0 0.0
2016-Jul-22 21:33N 39°30' E 002°44'0 0.0
2016-Jul-22 20:33N 39°30' E 002°44'0 0.0
2016-Jul-22 19:33N 39°30' E 002°44'0 0.0
2016-Jul-22 18:33N 39°30' E 002°44'0 0.0
2016-Jul-22 17:33N 39°30' E 002°44'0 0.0
2016-Jul-22 16:33N 39°30' E 002°44'0 0.0
2016-Jul-22 15:33N 39°30' E 002°44'0 0.0
2016-Jul-22 14:33N 39°30' E 002°44'0 0.2
2016-Jul-22 13:33N 39°30' E 002°44'6 6.0
2016-Jul-22 12:33N 39°34' E 002°38'0 0.0
2016-Jul-22 11:33N 39°34' E 002°38'0 0.0
2016-Jul-22 10:33N 39°34' E 002°38'0 0.0
2016-Jul-22 09:33N 39°34' E 002°38'0 0.0
2016-Jul-22 08:33N 39°34' E 002°38'0 0.0
2016-Jul-22 07:33N 39°34' E 002°38'0 0.0
2016-Jul-22 05:33N 39°34' E 002°38'0 0.0
2016-Jul-22 04:33N 39°34' E 002°38'0 0.0
2016-Jul-22 03:33N 39°34' E 002°38'0 0.0
2016-Jul-22 02:34N 39°34' E 002°38'0 0.0
2016-Jul-22 01:33N 39°34' E 002°38'0 0.0
2016-Jul-22 00:33N 39°34' E 002°38'0 0.0
2016-Jul-21 23:33N 39°34' E 002°38'0 0.0
2016-Jul-21 22:33N 39°34' E 002°38'0 0.0
2016-Jul-21 21:33N 39°34' E 002°38'0 0.0
2016-Jul-21 20:33N 39°34' E 002°38'0 0.0
2016-Jul-21 19:33N 39°34' E 002°38'0 0.0
2016-Jul-21 18:33N 39°34' E 002°38'0 0.0
2016-Jul-21 17:33N 39°34' E 002°38'0 0.0
2016-Jul-21 16:34N 39°34' E 002°38'0 0.0
2016-Jul-21 15:33N 39°34' E 002°38'0 0.0
2016-Jul-21 14:33N 39°34' E 002°38'0 0.0
2016-Jul-21 13:33N 39°34' E 002°38'0 0.0
2016-Jul-21 12:33N 39°34' E 002°38'0 0.0
2016-Jul-21 11:34N 39°34' E 002°38'0 0.0
2016-Jul-21 10:33N 39°34' E 002°38'0 0.0
2016-Jul-21 09:33N 39°34' E 002°38'0 0.0
2016-Jul-21 08:34N 39°34' E 002°38'0 0.0
2016-Jul-21 07:33N 39°34' E 002°38'0 0.0
2016-Jul-21 06:33N 39°34' E 002°38'0 0.0
2016-Jul-21 05:33N 39°34' E 002°38'0 0.0
2016-Jul-21 04:33N 39°34' E 002°38'0 0.0
2016-Jul-21 03:33N 39°34' E 002°38'0 0.0
2016-Jul-21 02:33N 39°34' E 002°38'0 0.0
2016-Jul-21 01:33N 39°34' E 002°38'0 0.0
2016-Jul-21 00:33N 39°34' E 002°38'0 0.0
2016-Jul-20 23:33N 39°34' E 002°38'0 0.0
2016-Jul-20 22:33N 39°34' E 002°38'0 0.0
2016-Jul-20 21:33N 39°34' E 002°38'0 0.0
2016-Jul-20 20:33N 39°34' E 002°38'0 0.0
2016-Jul-20 19:34N 39°34' E 002°38'0 0.0
2016-Jul-20 18:33N 39°34' E 002°38'0 0.0
2016-Jul-20 17:33N 39°34' E 002°38'0 0.0
2016-Jul-20 16:33N 39°34' E 002°38'0 0.0
2016-Jul-20 15:33N 39°34' E 002°38'0 0.0
2016-Jul-20 14:33N 39°34' E 002°38'0 0.0
2016-Jul-20 13:33N 39°34' E 002°38'0 0.0
2016-Jul-20 12:33N 39°34' E 002°38'0 0.0
2016-Jul-20 11:33N 39°34' E 002°38'0 0.0
2016-Jul-20 10:33N 39°34' E 002°38'0 0.0
2016-Jul-20 09:33N 39°34' E 002°38'0 0.0
2016-Jul-20 08:33N 39°34' E 002°38'0 0.0
2016-Jul-20 07:33N 39°34' E 002°38'0 0.0
2016-Jul-20 06:34N 39°34' E 002°38'0 0.0
2016-Jul-20 05:33N 39°34' E 002°38'0 0.0
2016-Jul-20 04:33N 39°34' E 002°38'0 0.0
2016-Jul-20 03:33N 39°34' E 002°38'0 0.0
2016-Jul-20 02:34N 39°34' E 002°38'0 0.0
2016-Jul-20 01:34N 39°34' E 002°38'0 0.0
2016-Jul-20 00:33N 39°34' E 002°38'0 0.0
2016-Jul-19 23:33N 39°34' E 002°38'0 0.0
2016-Jul-19 22:34N 39°34' E 002°38'0 0.0
2016-Jul-19 21:34N 39°34' E 002°38'0 0.0
2016-Jul-19 20:34N 39°34' E 002°38'0 0.0
2016-Jul-19 19:33N 39°34' E 002°38'0 0.0
2016-Jul-19 18:33N 39°34' E 002°38'0 0.0
2016-Jul-19 17:34N 39°34' E 002°38'0 0.0
2016-Jul-19 16:33N 39°34' E 002°38'0 0.0
2016-Jul-19 15:33N 39°34' E 002°38'0 0.0
2016-Jul-19 14:33N 39°34' E 002°38'0 0.0
2016-Jul-19 13:33N 39°34' E 002°38'0 0.0
2016-Jul-19 12:33N 39°34' E 002°38'0 0.0
2016-Jul-19 11:33N 39°34' E 002°38'0 0.0
2016-Jul-19 10:33N 39°34' E 002°38'0 0.0
2016-Jul-19 09:33N 39°34' E 002°38'0 0.0
2016-Jul-19 08:33N 39°34' E 002°38'0 0.0
2016-Jul-19 07:33N 39°34' E 002°38'0 0.0
2016-Jul-19 04:33N 39°34' E 002°38'0 0.0
2016-Jul-19 03:33N 39°34' E 002°38'0 0.0
2016-Jul-19 02:33N 39°34' E 002°38'0 0.0
2016-Jul-19 01:33N 39°34' E 002°38'0 0.0
2016-Jul-19 00:33N 39°34' E 002°38'0 0.0
2016-Jul-18 23:33N 39°34' E 002°38'0 0.0
2016-Jul-18 22:33N 39°34' E 002°38'0 0.0
2016-Jul-18 21:33N 39°34' E 002°38'0 0.0
2016-Jul-18 20:33N 39°34' E 002°38'0 0.0
2016-Jul-18 19:34N 39°34' E 002°38'0 0.0
2016-Jul-18 18:33N 39°34' E 002°38'0 0.0
2016-Jul-18 17:08N 39°34' E 002°38'0 0.0
2016-Jul-18 16:33N 39°34' E 002°38'0 0.0
2016-Jul-18 15:33N 39°34' E 002°38'0 0.0
2016-Jul-18 14:33N 39°34' E 002°38'0 0.0
2016-Jul-18 13:33N 39°34' E 002°38'0 0.0
2016-Jul-18 12:33N 39°34' E 002°38'0 0.0
2016-Jul-18 11:33N 39°34' E 002°38'0 0.0
2016-Jul-18 10:33N 39°34' E 002°38'0 0.0
2016-Jul-18 09:33N 39°34' E 002°38'0 0.0
2016-Jul-18 08:33N 39°34' E 002°38'0 0.0
2016-Jul-18 07:34N 39°34' E 002°38'0 0.0
2016-Jul-18 06:33N 39°34' E 002°38'0 0.0
2016-Jul-18 05:33N 39°34' E 002°38'0 0.0
2016-Jul-18 04:33N 39°34' E 002°38'0 0.0
2016-Jul-18 03:33N 39°34' E 002°38'0 0.0
2016-Jul-18 02:33N 39°34' E 002°38'0 0.0
2016-Jul-18 01:33N 39°34' E 002°38'0 0.0
2016-Jul-18 00:33N 39°34' E 002°38'0 0.0
2016-Jul-17 23:33N 39°34' E 002°38'0 0.0
2016-Jul-17 22:33N 39°34' E 002°38'0 0.0
2016-Jul-17 21:33N 39°34' E 002°38'0 0.0
2016-Jul-17 20:33N 39°34' E 002°38'0 0.0
2016-Jul-17 19:33N 39°34' E 002°38'0 0.0
2016-Jul-17 18:33N 39°34' E 002°38'0 0.0
2016-Jul-17 17:33N 39°34' E 002°38'0 0.0
2016-Jul-17 16:33N 39°34' E 002°38'0 0.0
2016-Jul-17 15:33N 39°34' E 002°38'0 0.0
2016-Jul-17 14:33N 39°34' E 002°38'0 0.0
2016-Jul-17 13:33N 39°34' E 002°38'0 0.0
2016-Jul-17 12:33N 39°34' E 002°38'0 0.0
2016-Jul-17 11:33N 39°34' E 002°38'0 0.0
2016-Jul-17 10:33N 39°34' E 002°38'0 0.0
2016-Jul-17 09:33N 39°34' E 002°38'0 0.0
2016-Jul-17 08:33N 39°34' E 002°38'0 0.0
2016-Jul-17 07:33N 39°34' E 002°38'0 0.0
2016-Jul-17 06:33N 39°34' E 002°38'0 0.0
2016-Jul-17 04:33N 39°34' E 002°38'0 0.0
2016-Jul-17 03:33N 39°34' E 002°38'0 0.0
2016-Jul-17 02:33N 39°34' E 002°38'0 0.0
2016-Jul-17 01:33N 39°34' E 002°38'0 0.0
2016-Jul-17 00:33N 39°34' E 002°38'0 0.0
2016-Jul-16 23:33N 39°34' E 002°38'0 0.0
2016-Jul-16 22:33N 39°34' E 002°38'0 0.0
2016-Jul-16 21:18N 39°34' E 002°38'0 0.0
2016-Jul-16 20:33N 39°34' E 002°38'0 0.0
2016-Jul-16 19:33N 39°34' E 002°38'0 0.0
2016-Jul-16 18:33N 39°34' E 002°38'  

Dump ship's entire track history